createdAt,value
2018-12-11T00:00:14.442Z,7.35
2018-12-11T00:01:14.471Z,7.49
2018-12-11T00:02:14.476Z,7.55
2018-12-11T00:03:14.500Z,7.59
2018-12-11T00:04:14.512Z,7.37
2018-12-11T00:05:14.522Z,7.50
2018-12-11T00:06:14.536Z,7.67
2018-12-11T00:07:14.556Z,7.56
2018-12-11T00:08:14.564Z,7.66
2018-12-11T00:09:14.588Z,7.66
2018-12-11T00:10:14.607Z,7.72
2018-12-11T00:11:14.618Z,7.84
2018-12-11T00:12:14.624Z,7.71
2018-12-11T00:13:14.634Z,7.71
2018-12-11T00:14:14.664Z,7.62
2018-12-11T00:15:14.663Z,7.81
2018-12-11T00:17:14.696Z,7.67
2018-12-11T00:18:14.704Z,7.58
2018-12-11T00:19:14.730Z,7.44
2018-12-11T00:20:14.771Z,7.47
2018-12-11T00:21:14.751Z,7.47
2018-12-11T00:22:14.783Z,7.52
2018-12-11T00:23:14.786Z,7.19
2018-12-11T00:24:14.850Z,7.35
2018-12-11T00:25:14.812Z,7.60
2018-12-11T00:26:14.831Z,7.47
2018-12-11T00:27:14.832Z,7.59
2018-12-11T00:28:14.846Z,7.66
2018-12-11T00:29:14.871Z,7.82
2018-12-11T00:30:14.894Z,7.69
2018-12-11T00:31:14.898Z,7.90
2018-12-11T00:32:14.914Z,7.84
2018-12-11T00:33:14.920Z,7.72
2018-12-11T00:34:14.937Z,7.63
2018-12-11T00:36:14.967Z,7.81
2018-12-11T00:37:14.977Z,7.87
2018-12-11T00:38:14.991Z,7.69
2018-12-11T00:39:15.007Z,7.81
2018-12-11T00:40:15.020Z,7.67
2018-12-11T00:41:15.031Z,7.63
2018-12-11T00:42:15.050Z,7.62
2018-12-11T00:43:15.078Z,7.63
2018-12-11T00:44:15.080Z,7.67
2018-12-11T00:45:15.120Z,7.78
2018-12-11T00:46:15.106Z,7.52
2018-12-11T00:47:15.133Z,7.44
2018-12-11T00:48:15.132Z,7.34
2018-12-11T00:49:15.147Z,7.45
2018-12-11T00:50:15.168Z,7.92
2018-12-11T00:51:15.175Z,7.92
2018-12-11T00:52:15.225Z,7.85
2018-12-11T00:53:15.223Z,7.60
2018-12-11T00:54:15.233Z,7.60
2018-12-11T00:55:15.228Z,7.63
2018-12-11T00:56:15.247Z,7.29
2018-12-11T00:57:15.260Z,7.29
2018-12-11T00:58:15.281Z,7.47
2018-12-11T00:59:15.298Z,7.50
2018-12-11T01:00:15.311Z,7.35
2018-12-11T01:01:15.334Z,7.40
2018-12-11T01:02:15.350Z,7.56
2018-12-11T01:03:15.346Z,7.40
2018-12-11T01:04:15.359Z,7.53
2018-12-11T01:05:15.421Z,7.52
2018-12-11T01:06:15.404Z,7.49
2018-12-11T01:07:15.404Z,7.44
2018-12-11T01:09:15.427Z,7.32
2018-12-11T01:10:15.442Z,7.20
2018-12-11T01:11:15.472Z,7.38
2018-12-11T01:12:15.479Z,7.32
2018-12-11T01:13:15.487Z,7.50
2018-12-11T01:14:15.511Z,7.50
2018-12-11T01:16:15.529Z,7.47
2018-12-11T01:17:15.544Z,7.59
2018-12-11T01:18:15.590Z,7.42
2018-12-11T01:19:15.571Z,7.49
2018-12-11T01:20:15.662Z,7.63
2018-12-11T01:21:15.598Z,7.69
2018-12-11T01:23:15.627Z,7.94
2018-12-11T01:24:15.646Z,8.08
2018-12-11T01:25:15.663Z,8.12
2018-12-11T01:26:15.668Z,8.07
2018-12-11T01:27:15.690Z,7.96
2018-12-11T01:28:15.710Z,7.81
2018-12-11T01:29:15.712Z,7.63
2018-12-11T01:30:15.739Z,7.89
2018-12-11T01:31:15.738Z,7.79
2018-12-11T01:32:15.753Z,7.79
2018-12-11T01:33:15.785Z,7.79
2018-12-11T01:35:15.796Z,7.59
2018-12-11T01:36:15.806Z,7.49
2018-12-11T01:37:15.868Z,7.24
2018-12-11T01:38:15.844Z,7.47
2018-12-11T01:39:15.849Z,7.50
2018-12-11T01:40:15.864Z,7.74
2018-12-11T01:41:15.879Z,7.67
2018-12-11T01:42:15.911Z,7.55
2018-12-11T01:43:15.910Z,7.62
2018-12-11T01:44:15.924Z,7.66
2018-12-11T01:45:15.946Z,7.62
2018-12-11T01:46:15.960Z,7.45
2018-12-11T01:47:15.959Z,7.50
2018-12-11T01:48:15.973Z,7.63
2018-12-11T01:49:16.001Z,7.26
2018-12-11T01:50:16.050Z,7.34
2018-12-11T01:51:16.020Z,7.50
2018-12-11T01:52:16.027Z,7.62
2018-12-11T01:53:16.049Z,7.53
2018-12-11T01:54:16.056Z,7.45
2018-12-11T01:55:16.077Z,7.38
2018-12-11T01:56:16.108Z,7.49
2018-12-11T01:57:16.111Z,7.62
2018-12-11T01:58:16.113Z,7.69
2018-12-11T01:59:16.131Z,7.63
2018-12-11T02:01:16.161Z,7.35
2018-12-11T02:02:16.174Z,7.42
2018-12-11T02:03:16.196Z,7.34
2018-12-11T02:04:16.205Z,7.34
2018-12-11T02:05:16.217Z,7.42
2018-12-11T02:06:16.225Z,7.41
2018-12-11T02:07:16.345Z,7.45
2018-12-11T02:08:16.254Z,7.13
2018-12-11T02:09:16.272Z,7.32
2018-12-11T02:10:16.281Z,7.58
2018-12-11T02:11:16.312Z,7.66
2018-12-11T02:12:16.309Z,7.50
2018-12-11T02:13:16.328Z,7.60
2018-12-11T02:14:16.341Z,7.37
2018-12-11T02:15:16.354Z,7.37
2018-12-11T02:16:16.371Z,7.52
2018-12-11T02:17:16.399Z,7.52
2018-12-11T02:18:18.426Z,7.49
2018-12-11T02:19:16.427Z,7.37
2018-12-11T02:21:16.444Z,7.35
2018-12-11T02:23:16.461Z,7.58
2018-12-11T02:24:16.486Z,7.62
2018-12-11T02:25:16.499Z,7.27
2018-12-11T02:26:16.517Z,7.38
2018-12-11T02:27:16.520Z,7.59
2018-12-11T02:28:16.536Z,7.53
2018-12-11T02:29:16.550Z,7.67
2018-12-11T02:30:16.566Z,7.55
2018-12-11T02:31:16.595Z,7.41
2018-12-11T02:32:16.603Z,7.34
2018-12-11T02:33:16.614Z,7.50
2018-12-11T02:35:16.748Z,7.35
2018-12-11T02:36:18.651Z,7.26
2018-12-11T02:37:16.662Z,7.52
2018-12-11T02:38:16.688Z,7.44
2018-12-11T02:39:16.703Z,7.71
2018-12-11T02:40:16.707Z,7.49
2018-12-11T02:41:16.757Z,7.62
2018-12-11T02:42:16.745Z,7.32
2018-12-11T02:43:16.748Z,7.40
2018-12-11T02:44:16.771Z,7.41
2018-12-11T02:45:16.788Z,7.38
2018-12-11T02:46:16.792Z,7.17
2018-12-11T02:47:16.806Z,7.12
2018-12-11T02:48:16.820Z,7.38
2018-12-11T02:49:16.838Z,6.97
2018-12-11T02:50:16.847Z,7.07
2018-12-11T02:51:16.857Z,7.22
2018-12-11T02:52:16.911Z,7.40
2018-12-11T02:53:16.904Z,7.22
2018-12-11T02:54:16.904Z,7.19
2018-12-11T02:55:16.918Z,7.09
2018-12-11T02:56:16.929Z,6.90
2018-12-11T02:57:16.940Z,7.13
2018-12-11T02:58:16.989Z,7.02
2018-12-11T02:59:16.968Z,6.77
2018-12-11T03:00:16.985Z,6.94
2018-12-11T03:01:17.007Z,7.13
2018-12-11T03:02:17.016Z,7.22
2018-12-11T03:03:17.057Z,7.31
2018-12-11T03:04:17.066Z,7.12
2018-12-11T03:05:17.067Z,7.13
2018-12-11T03:06:17.081Z,7.27
2018-12-11T03:07:17.088Z,7.35
2018-12-11T03:08:17.100Z,7.09
2018-12-11T03:09:17.176Z,7.35
2018-12-11T03:10:17.142Z,7.49
2018-12-11T03:11:17.154Z,7.40
2018-12-11T03:12:17.149Z,7.23
2018-12-11T03:13:17.182Z,7.23
2018-12-11T03:14:17.188Z,7.27
2018-12-11T03:15:17.202Z,7.34
2018-12-11T03:16:17.279Z,7.26
2018-12-11T03:17:17.222Z,7.45
2018-12-11T03:18:17.239Z,7.34
2018-12-11T03:19:19.254Z,7.12
2018-12-11T03:20:17.263Z,6.98
2018-12-11T03:21:17.281Z,7.13
2018-12-11T03:22:17.298Z,7.05
2018-12-11T03:23:17.315Z,7.27
2018-12-11T03:24:17.336Z,7.31
2018-12-11T03:25:19.369Z,7.49
2018-12-11T03:26:17.428Z,7.59
2018-12-11T03:27:17.371Z,7.38
2018-12-11T03:28:17.424Z,7.34
2018-12-11T03:29:17.428Z,7.09
2018-12-11T03:30:17.399Z,6.98
2018-12-11T03:31:17.425Z,7.12
2018-12-11T03:32:17.436Z,7.26
2018-12-11T03:33:17.448Z,7.35
2018-12-11T03:34:17.454Z,7.38
2018-12-11T03:35:17.467Z,7.31
2018-12-11T03:36:17.481Z,7.35
2018-12-11T03:37:17.517Z,7.40
2018-12-11T03:38:17.519Z,7.32
2018-12-11T03:39:17.538Z,7.07
2018-12-11T03:41:17.552Z,7.17
2018-12-11T03:42:17.566Z,7.27
2018-12-11T03:43:17.590Z,7.02
2018-12-11T03:44:17.603Z,7.15
2018-12-11T03:45:17.617Z,7.16
2018-12-11T03:46:17.617Z,7.23
2018-12-11T03:47:19.639Z,7.29
2018-12-11T03:48:17.660Z,7.17
2018-12-11T03:49:17.665Z,7.27
2018-12-11T03:50:17.677Z,7.16
2018-12-11T03:51:17.691Z,7.05
2018-12-11T03:52:21.349Z,7.15
2018-12-11T03:53:17.739Z,7.23
2018-12-11T03:54:17.784Z,7.34
2018-12-11T03:55:17.744Z,7.17
2018-12-11T03:56:17.771Z,7.04
2018-12-11T03:57:17.786Z,7.15
2018-12-11T03:58:17.795Z,7.31
2018-12-11T03:59:17.810Z,7.34
2018-12-11T04:00:17.834Z,7.37
2018-12-11T04:01:17.825Z,7.47
2018-12-11T04:02:17.835Z,7.59
2018-12-11T04:03:17.861Z,7.38
2018-12-11T04:04:17.870Z,6.98
2018-12-11T04:05:17.888Z,6.95
2018-12-11T04:06:17.896Z,6.99
2018-12-11T04:07:17.960Z,7.37
2018-12-11T04:08:17.927Z,7.23
2018-12-11T04:09:17.988Z,7.59
2018-12-11T04:10:17.942Z,7.32
2018-12-11T04:11:17.975Z,7.32
2018-12-11T04:12:17.977Z,7.20
2018-12-11T04:13:17.993Z,7.07
2018-12-11T04:14:18.009Z,6.97
2018-12-11T04:15:18.043Z,6.99
2018-12-11T04:16:18.037Z,7.26
2018-12-11T04:17:18.045Z,6.90
2018-12-11T04:18:19.067Z,6.95
2018-12-11T04:19:18.125Z,7.08
2018-12-11T04:20:18.085Z,7.09
2018-12-11T04:21:18.095Z,7.09
2018-12-11T04:22:18.105Z,7.27
2018-12-11T04:23:18.134Z,6.97
2018-12-11T04:24:20.157Z,6.86
2018-12-11T04:25:18.150Z,6.98
2018-12-11T04:26:18.163Z,7.44
2018-12-11T04:27:18.234Z,7.17
2018-12-11T04:28:18.207Z,6.95
2018-12-11T04:29:18.210Z,7.20
2018-12-11T04:30:18.226Z,7.02
2018-12-11T04:31:18.242Z,6.72
2018-12-11T04:33:18.255Z,6.68
2018-12-11T04:34:18.282Z,6.65
2018-12-11T04:35:18.332Z,6.68
2018-12-11T04:37:18.310Z,6.98
2018-12-11T04:38:18.343Z,7.16
2018-12-11T04:39:18.408Z,7.07
2018-12-11T04:40:18.367Z,7.07
2018-12-11T04:41:18.372Z,6.98
2018-12-11T04:42:18.379Z,6.90
2018-12-11T04:43:18.438Z,6.95
2018-12-11T04:44:18.414Z,7.15
2018-12-11T04:45:18.430Z,7.16
2018-12-11T04:48:18.487Z,7.22
2018-12-11T04:49:18.476Z,7.19
2018-12-11T04:50:18.489Z,6.89
2018-12-11T04:51:18.496Z,6.94
2018-12-11T04:52:18.517Z,6.98
2018-12-11T04:53:18.533Z,6.91
2018-12-11T04:54:18.558Z,6.72
2018-12-11T04:55:18.593Z,6.80
2018-12-11T04:56:18.611Z,6.98
2018-12-11T04:57:18.578Z,6.65
2018-12-11T04:58:18.595Z,6.84
2018-12-11T04:59:18.606Z,6.94
2018-12-11T05:00:18.652Z,6.95
2018-12-11T05:01:18.637Z,7.02
2018-12-11T05:02:18.654Z,7.04
2018-12-11T05:03:18.685Z,6.95
2018-12-11T05:04:18.698Z,7.07
2018-12-11T05:05:18.743Z,7.13
2018-12-11T05:06:18.705Z,6.95
2018-12-11T05:07:18.712Z,6.65
2018-12-11T05:08:18.774Z,6.65
2018-12-11T05:09:18.771Z,6.94
2018-12-11T05:10:18.765Z,6.86
2018-12-11T05:11:18.775Z,6.90
2018-12-11T05:12:18.787Z,6.86
2018-12-11T05:13:18.824Z,6.62
2018-12-11T05:14:18.809Z,6.81
2018-12-11T05:15:18.821Z,6.91
2018-12-11T05:16:18.848Z,6.91
2018-12-11T05:17:18.863Z,6.86
2018-12-11T05:18:21.192Z,6.71
2018-12-11T05:19:18.876Z,6.91
2018-12-11T05:20:18.914Z,7.05
2018-12-11T05:21:18.901Z,6.99
2018-12-11T05:22:18.912Z,6.99
2018-12-11T05:23:18.921Z,6.84
2018-12-11T05:24:18.937Z,6.94
2018-12-11T05:25:19.021Z,7.04
2018-12-11T05:26:19.163Z,6.98
2018-12-11T05:27:18.995Z,6.73
2018-12-11T05:28:19.075Z,6.66
2018-12-11T05:29:19.014Z,6.84
2018-12-11T05:30:19.060Z,6.89
2018-12-11T05:31:19.038Z,6.66
2018-12-11T05:32:19.046Z,6.81
2018-12-11T05:33:19.073Z,6.72
2018-12-11T05:34:19.078Z,6.84
2018-12-11T05:35:19.116Z,6.65
2018-12-11T05:36:19.109Z,6.80
2018-12-11T05:37:19.144Z,6.98
2018-12-11T05:38:19.127Z,6.94
2018-12-11T05:39:19.145Z,6.72
2018-12-11T05:40:19.153Z,6.69
2018-12-11T05:41:19.167Z,6.99
2018-12-11T05:42:19.187Z,6.81
2018-12-11T05:43:19.191Z,6.95
2018-12-11T05:44:19.219Z,6.80
2018-12-11T05:45:19.344Z,6.77
2018-12-11T05:46:19.234Z,6.69
2018-12-11T05:47:19.242Z,6.80
2018-12-11T05:48:19.258Z,7.04
2018-12-11T05:49:19.286Z,6.83
2018-12-11T05:50:19.292Z,6.61
2018-12-11T05:51:19.400Z,6.58
2018-12-11T05:52:19.309Z,6.65
2018-12-11T05:53:19.331Z,6.73
2018-12-11T05:55:19.363Z,6.61
2018-12-11T05:56:19.529Z,6.86
2018-12-11T05:57:19.382Z,6.83
2018-12-11T05:58:19.470Z,6.65
2018-12-11T05:59:19.404Z,6.72
2018-12-11T06:00:19.430Z,6.95
2018-12-11T06:01:19.446Z,6.59
2018-12-11T06:02:19.453Z,6.83
2018-12-11T06:03:19.460Z,6.62
2018-12-11T06:04:19.471Z,6.63
2018-12-11T06:05:19.526Z,6.54
2018-12-11T06:06:19.506Z,6.68
2018-12-11T06:07:19.524Z,6.69
2018-12-11T06:08:19.534Z,6.61
2018-12-11T06:09:19.542Z,6.35
2018-12-11T06:10:19.559Z,6.36
2018-12-11T06:11:19.574Z,6.53
2018-12-11T06:12:19.579Z,6.68
2018-12-11T06:13:19.592Z,6.80
2018-12-11T06:14:19.601Z,6.71
2018-12-11T06:15:19.620Z,6.36
2018-12-11T06:16:19.640Z,6.46
2018-12-11T06:17:19.644Z,6.59
2018-12-11T06:18:19.651Z,6.77
2018-12-11T06:19:19.676Z,6.72
2018-12-11T06:20:19.685Z,6.63
2018-12-11T06:21:19.694Z,6.32
2018-12-11T06:22:19.705Z,6.35
2018-12-11T06:23:19.733Z,6.46
2018-12-11T06:24:19.741Z,6.32
2018-12-11T06:25:19.767Z,6.36
2018-12-11T06:26:19.773Z,6.63
2018-12-11T06:27:19.784Z,6.58
2018-12-11T06:28:19.795Z,6.63
2018-12-11T06:29:19.799Z,6.30
2018-12-11T06:30:19.836Z,6.47
2018-12-11T06:31:19.824Z,6.69
2018-12-11T06:32:19.837Z,6.77
2018-12-11T06:33:19.872Z,6.77
2018-12-11T06:34:19.860Z,6.68
2018-12-11T06:35:19.878Z,6.65
2018-12-11T06:36:19.890Z,6.58
2018-12-11T06:37:19.908Z,6.65
2018-12-11T06:38:19.918Z,6.56
2018-12-11T06:39:19.935Z,6.44
2018-12-11T06:40:19.943Z,6.61
2018-12-11T06:41:19.958Z,6.86
2018-12-11T06:42:19.962Z,6.71
2018-12-11T06:43:20.089Z,6.73
2018-12-11T06:44:19.998Z,6.83
2018-12-11T06:45:20.007Z,6.79
2018-12-11T06:46:20.027Z,6.76
2018-12-11T06:47:20.032Z,6.68
2018-12-11T06:48:20.051Z,6.66
2018-12-11T06:49:20.102Z,6.51
2018-12-11T06:50:20.088Z,6.62
2018-12-11T06:51:20.098Z,6.63
2018-12-11T06:52:20.101Z,6.65
2018-12-11T06:53:20.109Z,6.54
2018-12-11T06:54:20.121Z,6.18
2018-12-11T06:55:20.137Z,6.33
2018-12-11T06:56:20.146Z,6.51
2018-12-11T06:57:20.176Z,6.71
2018-12-11T06:58:20.176Z,6.66
2018-12-11T06:59:20.187Z,6.13
2018-12-11T07:00:20.324Z,6.35
2018-12-11T07:02:20.228Z,6.30
2018-12-11T07:03:20.244Z,6.28
2018-12-11T07:04:20.259Z,6.19
2018-12-11T07:05:20.271Z,6.29
2018-12-11T07:06:20.280Z,6.40
2018-12-11T07:07:20.307Z,6.13
2018-12-11T07:08:20.314Z,6.16
2018-12-11T07:09:20.327Z,6.30
2018-12-11T07:10:20.348Z,6.07
2018-12-11T07:11:20.356Z,6.26
2018-12-11T07:13:20.374Z,6.53
2018-12-11T07:14:20.394Z,6.50
2018-12-11T07:15:20.403Z,6.40
2018-12-11T07:16:20.419Z,6.14
2018-12-11T07:17:20.461Z,6.01
2018-12-11T07:18:25.805Z,5.93
2018-12-11T07:19:20.458Z,6.01
2018-12-11T07:20:20.466Z,6.28
2018-12-11T07:21:20.485Z,6.50
2018-12-11T07:22:20.500Z,6.50
2018-12-11T07:23:20.519Z,6.38
2018-12-11T07:24:20.534Z,6.33
2018-12-11T07:25:20.538Z,6.25
2018-12-11T07:26:20.541Z,6.19
2018-12-11T07:27:20.584Z,6.40
2018-12-11T07:28:20.570Z,6.35
2018-12-11T07:29:20.581Z,6.14
2018-12-11T07:30:20.602Z,6.38
2018-12-11T07:31:20.619Z,6.46
2018-12-11T07:32:20.633Z,6.53
2018-12-11T07:33:20.669Z,6.56
2018-12-11T07:34:20.663Z,6.61
2018-12-11T07:35:20.667Z,6.50
2018-12-11T07:36:20.679Z,6.71
2018-12-11T07:37:20.690Z,6.84
2018-12-11T07:39:20.717Z,6.68
2018-12-11T07:40:20.741Z,6.54
2018-12-11T07:41:20.751Z,6.40
2018-12-11T07:42:20.759Z,6.43
2018-12-11T07:43:20.770Z,6.53
2018-12-11T07:44:20.779Z,6.32
2018-12-11T07:45:20.804Z,6.51
2018-12-11T07:46:20.813Z,6.32
2018-12-11T07:47:20.827Z,6.35
2018-12-11T07:48:20.856Z,6.40
2018-12-11T07:49:20.850Z,6.40
2018-12-11T07:50:20.883Z,6.33
2018-12-11T07:51:20.923Z,6.25
2018-12-11T07:52:20.889Z,6.03
2018-12-11T07:53:20.907Z,6.11
2018-12-11T07:54:20.921Z,6.18
2018-12-11T07:55:20.937Z,6.35
2018-12-11T07:56:20.956Z,6.41
2018-12-11T07:57:20.987Z,6.41
2018-12-11T07:58:20.990Z,6.58
2018-12-11T07:59:21.002Z,6.71
2018-12-11T08:00:21.004Z,6.68
2018-12-11T08:01:21.008Z,6.33
2018-12-11T08:02:21.029Z,6.95
2018-12-11T08:03:21.042Z,6.71
2018-12-11T08:04:21.052Z,6.69
2018-12-11T08:05:21.078Z,6.81
2018-12-11T08:06:21.083Z,6.81
2018-12-11T08:07:21.090Z,6.66
2018-12-11T08:08:21.100Z,6.68
2018-12-11T08:09:21.123Z,6.83
2018-12-11T08:10:21.143Z,6.80
2018-12-11T08:11:21.152Z,6.91
2018-12-11T08:12:21.163Z,6.80
2018-12-11T08:13:21.182Z,6.40
2018-12-11T08:14:21.268Z,6.56
2018-12-11T08:15:21.259Z,6.46
2018-12-11T08:16:21.242Z,6.65
2018-12-11T08:17:21.359Z,6.69
2018-12-11T08:18:21.273Z,6.76
2018-12-11T08:19:21.325Z,6.54
2018-12-11T08:20:21.302Z,6.48
2018-12-11T08:21:21.415Z,6.63
2018-12-11T08:22:21.326Z,6.63
2018-12-11T08:23:21.297Z,6.90
2018-12-11T08:24:21.317Z,7.01
2018-12-11T08:25:21.352Z,6.91
2018-12-11T08:26:21.350Z,7.09
2018-12-11T08:27:21.346Z,7.19
2018-12-11T08:28:21.365Z,7.12
2018-12-11T08:29:21.390Z,6.84
2018-12-11T08:30:21.395Z,7.05
2018-12-11T08:31:21.412Z,7.17
2018-12-11T08:32:21.450Z,7.13
2018-12-11T08:33:21.459Z,6.95
2018-12-11T08:34:21.451Z,7.04
2018-12-11T08:35:21.457Z,7.02
2018-12-11T08:36:21.527Z,7.12
2018-12-11T08:37:21.481Z,7.13
2018-12-11T08:38:21.520Z,6.81
2018-12-11T08:39:21.515Z,6.83
2018-12-11T08:40:21.527Z,6.79
2018-12-11T08:41:21.546Z,6.81
2018-12-11T08:42:21.558Z,6.86
2018-12-11T08:43:21.568Z,6.77
2018-12-11T08:44:21.585Z,6.71
2018-12-11T08:45:21.599Z,6.81
2018-12-11T08:46:22.240Z,6.91
2018-12-11T08:47:21.668Z,6.77
2018-12-11T08:48:21.635Z,6.77
2018-12-11T08:49:21.648Z,6.73
2018-12-11T08:50:21.659Z,6.62
2018-12-11T08:51:21.681Z,6.91
2018-12-11T08:52:21.690Z,7.04
2018-12-11T08:53:21.716Z,7.26
2018-12-11T08:54:21.713Z,7.37
2018-12-11T08:55:21.732Z,7.32
2018-12-11T08:56:21.745Z,7.27
2018-12-11T08:57:21.751Z,7.20
2018-12-11T08:58:21.772Z,7.15
2018-12-11T08:59:21.786Z,6.90
2018-12-11T09:00:21.796Z,6.79
2018-12-11T09:02:21.821Z,7.07
2018-12-11T09:03:21.836Z,7.19
2018-12-11T09:04:21.935Z,7.27
2018-12-11T09:05:21.862Z,7.15
2018-12-11T09:06:21.873Z,7.15
2018-12-11T09:07:21.908Z,7.23
2018-12-11T09:08:21.899Z,7.31
2018-12-11T09:09:21.918Z,7.31
2018-12-11T09:10:21.938Z,7.45
2018-12-11T09:11:21.942Z,7.32
2018-12-11T09:12:21.957Z,7.77
2018-12-11T09:14:21.989Z,7.59
2018-12-11T09:15:21.997Z,7.49
2018-12-11T09:16:22.011Z,7.24
2018-12-11T09:17:22.030Z,7.47
2018-12-11T09:18:22.036Z,7.15
2018-12-11T09:19:22.065Z,7.13
2018-12-11T09:20:22.066Z,7.26
2018-12-11T09:21:22.117Z,7.23
2018-12-11T09:22:22.105Z,7.20
2018-12-11T09:23:22.116Z,7.09
2018-12-11T09:24:22.117Z,7.29
2018-12-11T09:25:22.150Z,7.07
2018-12-11T09:26:22.147Z,7.08
2018-12-11T09:27:22.162Z,7.04
2018-12-11T09:28:22.174Z,6.99
2018-12-11T09:29:22.188Z,6.91
2018-12-11T09:30:22.199Z,6.98
2018-12-11T09:31:22.217Z,7.26
2018-12-11T09:32:22.234Z,7.32
2018-12-11T09:33:22.268Z,7.34
2018-12-11T09:34:22.271Z,7.40
2018-12-11T09:35:22.281Z,7.63
2018-12-11T09:36:22.290Z,7.47
2018-12-11T09:37:22.296Z,7.34
2018-12-11T09:38:22.311Z,7.42
2018-12-11T09:39:22.336Z,7.37
2018-12-11T09:40:24.655Z,7.34
2018-12-11T09:41:22.363Z,7.42
2018-12-11T09:42:27.775Z,7.41
2018-12-11T09:43:22.384Z,7.62
2018-12-11T09:44:22.401Z,7.58
2018-12-11T09:45:22.420Z,7.56
2018-12-11T09:46:22.425Z,7.63
2018-12-11T09:47:22.436Z,7.58
2018-12-11T09:48:22.456Z,7.62
2018-12-11T09:49:22.607Z,7.58
2018-12-11T09:50:22.485Z,7.75
2018-12-11T09:51:22.490Z,7.71
2018-12-11T09:52:22.515Z,7.94
2018-12-11T09:53:22.519Z,8.08
2018-12-11T09:54:22.535Z,7.87
2018-12-11T09:55:22.577Z,8.28
2018-12-11T09:56:22.626Z,8.21
2018-12-11T09:58:22.604Z,7.59
2018-12-11T09:59:23.574Z,7.62
2018-12-11T10:00:27.239Z,7.34
2018-12-11T10:01:22.632Z,7.49
2018-12-11T10:02:22.655Z,7.02
2018-12-11T10:03:22.660Z,7.05
2018-12-11T10:04:22.675Z,7.24
2018-12-11T10:05:22.728Z,7.37
2018-12-11T10:06:22.761Z,7.26
2018-12-11T10:07:22.724Z,7.19
2018-12-11T10:08:22.739Z,7.01
2018-12-11T10:09:22.750Z,7.26
2018-12-11T10:10:22.769Z,7.52
2018-12-11T10:11:22.785Z,7.31
2018-12-11T10:13:22.807Z,7.13
2018-12-11T10:14:22.815Z,7.08
2018-12-11T10:15:22.825Z,7.05
2018-12-11T10:16:22.861Z,7.08
2018-12-11T10:17:22.864Z,6.97
2018-12-11T10:18:22.875Z,7.07
2018-12-11T10:20:22.971Z,7.07
2018-12-11T10:21:22.922Z,7.15
2018-12-11T10:22:22.924Z,6.90
2018-12-11T10:23:22.973Z,6.79
2018-12-11T10:24:22.963Z,6.95
2018-12-11T10:25:22.976Z,7.15
2018-12-11T10:26:22.990Z,7.26
2018-12-11T10:27:23.004Z,6.80
2018-12-11T10:28:23.004Z,6.91
2018-12-11T10:29:23.022Z,7.16
2018-12-11T10:30:23.043Z,7.42
2018-12-11T10:31:23.051Z,7.24
2018-12-11T10:32:23.060Z,7.49
2018-12-11T10:33:23.102Z,7.45
2018-12-11T10:35:23.106Z,7.24
2018-12-11T10:36:23.124Z,7.12
2018-12-11T10:37:23.130Z,7.12
2018-12-11T10:38:23.143Z,7.08
2018-12-11T10:39:23.177Z,7.01
2018-12-11T10:40:23.197Z,7.02
2018-12-11T10:41:23.203Z,6.91
2018-12-11T10:42:23.202Z,6.97
2018-12-11T10:43:23.219Z,6.68
2018-12-11T10:44:23.223Z,6.50
2018-12-11T10:45:23.245Z,7.02
2018-12-11T10:46:23.257Z,6.72
2018-12-11T10:47:23.277Z,6.86
2018-12-11T10:49:23.295Z,6.84
2018-12-11T10:50:23.311Z,6.95
2018-12-11T10:51:23.466Z,7.20
2018-12-11T10:52:23.335Z,7.19
2018-12-11T10:53:23.349Z,7.09
2018-12-11T10:54:23.406Z,6.91
2018-12-11T10:55:23.408Z,6.79
2018-12-11T10:56:23.402Z,6.66
2018-12-11T10:57:23.407Z,6.99
2018-12-11T10:58:23.423Z,6.95
2018-12-11T10:59:23.434Z,7.08
2018-12-11T11:00:23.444Z,6.79
2018-12-11T11:01:23.482Z,6.72
2018-12-11T11:02:23.476Z,6.56
2018-12-11T11:03:23.481Z,6.66
2018-12-11T11:04:23.502Z,6.81
2018-12-11T11:05:23.520Z,6.81
2018-12-11T11:06:23.549Z,7.05
2018-12-11T11:07:23.538Z,6.65
2018-12-11T11:08:23.581Z,6.79
2018-12-11T11:09:23.587Z,6.48
2018-12-11T11:10:23.582Z,6.58
2018-12-11T11:11:23.611Z,6.66
2018-12-11T11:12:23.609Z,6.80
2018-12-11T11:13:23.638Z,6.97
2018-12-11T11:14:25.165Z,6.71
2018-12-11T11:15:23.651Z,6.95
2018-12-11T11:16:23.662Z,6.83
2018-12-11T11:17:23.678Z,6.80
2018-12-11T11:18:23.697Z,7.17
2018-12-11T11:19:23.712Z,6.91
2018-12-11T11:20:23.720Z,6.94
2018-12-11T11:21:23.769Z,6.97
2018-12-11T11:22:23.770Z,6.69
2018-12-11T11:23:23.769Z,6.69
2018-12-11T11:24:23.813Z,6.73
2018-12-11T11:25:23.856Z,6.80
2018-12-11T11:26:23.804Z,6.80
2018-12-11T11:27:23.820Z,6.91
2018-12-11T11:28:23.834Z,7.13
2018-12-11T11:29:23.845Z,6.95
2018-12-11T11:30:23.852Z,7.01
2018-12-11T11:31:23.870Z,7.12
2018-12-11T11:32:23.881Z,7.09
2018-12-11T11:33:23.913Z,7.23
2018-12-11T11:34:23.914Z,7.13
2018-12-11T11:35:23.923Z,7.17
2018-12-11T11:36:23.953Z,6.91
2018-12-11T11:37:23.951Z,6.94
2018-12-11T11:38:23.967Z,7.01
2018-12-11T11:39:23.980Z,6.81
2018-12-11T11:40:24.013Z,6.90
2018-12-11T11:41:24.004Z,6.80
2018-12-11T11:42:24.029Z,6.98
2018-12-11T11:43:24.026Z,6.95
2018-12-11T11:44:24.038Z,6.79
2018-12-11T11:45:24.053Z,6.81
2018-12-11T11:46:24.077Z,6.83
2018-12-11T11:47:24.097Z,6.95
2018-12-11T11:48:24.095Z,6.91
2018-12-11T11:49:24.111Z,7.09
2018-12-11T11:50:24.131Z,7.12
2018-12-11T11:51:24.137Z,7.04
2018-12-11T11:52:24.198Z,6.90
2018-12-11T11:53:24.270Z,6.66
2018-12-11T11:54:24.201Z,6.68
2018-12-11T11:55:24.188Z,6.80
2018-12-11T11:56:24.207Z,7.08
2018-12-11T11:57:29.585Z,7.13
2018-12-11T11:58:24.233Z,6.95
2018-12-11T11:59:24.256Z,6.95
2018-12-11T12:00:24.263Z,6.91
2018-12-11T12:01:24.278Z,6.99
2018-12-11T12:02:24.308Z,6.97
2018-12-11T12:03:24.303Z,6.68
2018-12-11T12:04:24.316Z,6.80
2018-12-11T12:05:24.326Z,6.97
2018-12-11T12:06:24.339Z,7.27
2018-12-11T12:07:24.374Z,6.99
2018-12-11T12:08:24.390Z,6.94
2018-12-11T12:09:24.387Z,6.91
2018-12-11T12:10:24.409Z,6.86
2018-12-11T12:11:24.407Z,6.68
2018-12-11T12:12:24.431Z,6.51
2018-12-11T12:13:24.437Z,6.86
2018-12-11T12:14:24.463Z,6.86
2018-12-11T12:15:24.480Z,6.90
2018-12-11T12:17:24.498Z,6.84
2018-12-11T12:18:24.511Z,6.94
2018-12-11T12:19:24.527Z,6.87
2018-12-11T12:20:24.528Z,6.90
2018-12-11T12:21:24.547Z,6.86
2018-12-11T12:22:24.560Z,6.83
2018-12-11T12:23:24.672Z,6.66
2018-12-11T12:24:24.590Z,6.84
2018-12-11T12:25:24.599Z,6.90
2018-12-11T12:26:24.626Z,6.84
2018-12-11T12:27:24.693Z,7.08
2018-12-11T12:28:24.642Z,7.05
2018-12-11T12:29:24.657Z,7.04
2018-12-11T12:30:24.679Z,7.09
2018-12-11T12:31:24.685Z,6.98
2018-12-11T12:32:24.703Z,6.95
2018-12-11T12:33:24.712Z,6.91
2018-12-11T12:34:24.724Z,7.08
2018-12-11T12:35:24.747Z,7.49
2018-12-11T12:36:24.749Z,7.24
2018-12-11T12:37:24.772Z,6.89
2018-12-11T12:38:24.832Z,7.07
2018-12-11T12:39:24.804Z,7.31
2018-12-11T12:40:24.804Z,7.59
2018-12-11T12:41:24.825Z,7.47
2018-12-11T12:42:24.833Z,6.97
2018-12-11T12:43:24.842Z,6.98
2018-12-11T12:44:24.965Z,6.90
2018-12-11T12:45:24.874Z,7.19
2018-12-11T12:46:24.889Z,7.35
2018-12-11T12:48:24.920Z,7.12
2018-12-11T12:49:24.940Z,6.80
2018-12-11T12:50:24.942Z,6.81
2018-12-11T12:51:24.957Z,6.99
2018-12-11T12:52:24.976Z,6.91
2018-12-11T12:53:24.977Z,6.94
2018-12-11T12:54:24.994Z,7.05
2018-12-11T12:55:25.092Z,7.08
2018-12-11T12:56:25.016Z,7.04
2018-12-11T12:57:25.047Z,7.16
2018-12-11T12:58:25.055Z,7.09
2018-12-11T12:59:25.064Z,6.99
2018-12-11T13:00:25.071Z,7.15
2018-12-11T13:01:25.087Z,7.52
2018-12-11T13:02:25.102Z,7.01
2018-12-11T13:03:25.113Z,6.94
2018-12-11T13:04:25.144Z,7.31
2018-12-11T13:05:25.144Z,7.26
2018-12-11T13:06:25.177Z,6.99
2018-12-11T13:07:25.191Z,7.05
2018-12-11T13:08:25.202Z,7.07
2018-12-11T13:09:25.189Z,7.01
2018-12-11T13:10:25.202Z,7.09
2018-12-11T13:11:25.297Z,7.13
2018-12-11T13:12:25.326Z,7.19
2018-12-11T13:13:25.257Z,7.27
2018-12-11T13:14:25.271Z,7.26
2018-12-11T13:15:25.268Z,7.40
2018-12-11T13:16:25.278Z,7.32
2018-12-11T13:17:25.297Z,7.29
2018-12-11T13:18:25.311Z,6.90
2018-12-11T13:19:25.402Z,7.19
2018-12-11T13:20:25.357Z,7.09
2018-12-11T13:21:25.351Z,7.09
2018-12-11T13:22:25.365Z,7.22
2018-12-11T13:23:25.375Z,7.26
2018-12-11T13:24:25.432Z,7.23
2018-12-11T13:25:25.419Z,7.19
2018-12-11T13:26:25.415Z,6.98
2018-12-11T13:27:25.439Z,6.91
2018-12-11T13:28:25.443Z,7.15
2018-12-11T13:29:25.460Z,7.27
2018-12-11T13:30:25.481Z,7.27
2018-12-11T13:31:25.491Z,7.07
2018-12-11T13:32:25.500Z,6.98
2018-12-11T13:33:25.514Z,7.13
2018-12-11T13:34:25.547Z,7.38
2018-12-11T13:35:25.542Z,7.22
2018-12-11T13:36:31.857Z,7.19
2018-12-11T13:37:25.566Z,6.95
2018-12-11T13:38:25.579Z,6.80
2018-12-11T13:39:25.593Z,6.90
2018-12-11T13:40:25.662Z,7.09
2018-12-11T13:41:25.618Z,7.23
2018-12-11T13:42:25.636Z,6.94
2018-12-11T13:43:25.644Z,6.97
2018-12-11T13:44:25.666Z,6.94
2018-12-11T13:45:25.699Z,7.04
2018-12-11T13:46:25.689Z,7.16